Home > Products > Valid Products > TAF

000
FTUS44 KTSA 192300
TAFRVS
TAF
KRVS 192320Z 2000/2024 12008KT P6SM FEW035
     FM200200 VRB03KT P6SM FEW250
      TEMPO 2009/2013 4SM BR BKN025
     FM201500 18007KT P6SM BKN050=



000
FTUS44 KTSA 192300
TAFFYV
TAF
KFYV 192320Z 2000/2024 18009KT P6SM SKC
     FM200100 00000KT P6SM SCT250
     FM200600 00000KT 4SM BR SCT250
      TEMPO 2009/2013 2SM BR
     FM201500 20007KT P6SM BKN050=



000
FTUS44 KTSA 192300
TAFMLC
TAF
KMLC 192320Z 2000/2024 14004KT P6SM VCSH BKN040
     FM200100 VRB03KT P6SM SCT250
      TEMPO 2009/2013 4SM BR
     FM201600 19006KT P6SM SCT050=



000
FTUS44 KTSA 192300
TAFXNA
TAF
KXNA 192320Z 2000/2024 00000KT P6SM FEW040
     FM200600 00000KT 4SM BR SCT250
      TEMPO 2009/2013 2SM BR
     FM201500 19008KT P6SM BKN050=



000
FTUS44 KTSA 192300
TAFFSM
TAF
KFSM 192320Z 2000/2024 08006KT P6SM SKC
     FM200100 08003KT P6SM SCT250
      TEMPO 2009/2013 5SM BR
     FM201500 08004KT P6SM BKN050=



000
FTUS44 KTSA 192300
TAFTUL
TAF
KTUL 192320Z 2000/2024 13007KT P6SM SCT020
      TEMPO 2009/2013 4SM BR BKN025
     FM201500 19008KT P6SM BKN050=



000
FTUS44 KTSA 191800 AAA
TAFTUL
TAF AMD
KTUL 191815Z 1918/2018 16006KT 5SM BR OVC010
     FM191900 16007KT P6SM BKN015
     FM192000 16007KT P6SM SCT025
     FM200100 15005KT P6SM FEW250
      TEMPO 2009/2013 4SM BR
     FM201500 19008KT P6SM BKN050=



000
FTUS44 KTSA 191800 AAA
TAFFYV
TAF AMD
KFYV 191803Z 1918/2018 00000KT P6SM SCT025 BKN040
     FM200100 00000KT P6SM SCT250
     FM200600 00000KT 4SM BR SCT250
      TEMPO 2009/2013 2SM BR
     FM201500 20007KT P6SM BKN050=



000
FTUS44 KTSA 191800 AAA
TAFRVS
TAF AMD
KRVS 191801Z 1918/2018 16003KT P6SM OVC009
     FM191900 16007KT P6SM BKN015
     FM192000 16007KT P6SM SCT025
     FM200100 15005KT P6SM FEW250
      TEMPO 2009/2013 4SM BR
     FM201500 19008KT P6SM BKN050=



000
FTUS44 KTSA 191700
TAFFSM
TAF
KFSM 191720Z 1918/2018 09006KT P6SM BKN025
     FM192000 10006KT P6SM SCT035
     FM200100 08003KT P6SM SCT250
      TEMPO 2009/2013 5SM BR
     FM201500 08004KT P6SM BKN050=



000
FTUS44 KTSA 191700
TAFTUL
TAF
KTUL 191720Z 1918/2018 16007KT 4SM BR OVC007
     FM191900 16007KT P6SM BKN015
     FM192000 16007KT P6SM SCT025
     FM200100 15005KT P6SM FEW250
      TEMPO 2009/2013 4SM BR
     FM201500 19008KT P6SM BKN050=



000
FTUS44 KTSA 191700
TAFMLC
TAF
KMLC 191720Z 1918/2018 15005KT P6SM BKN025
     FM192000 14003KT P6SM BKN040
     FM200100 14002KT P6SM SCT250
      TEMPO 2009/2013 4SM BR
     FM201600 19006KT P6SM SCT050=



000
FTUS44 KTSA 191700
TAFXNA
TAF
KXNA 191720Z 1918/2018 15007KT P6SM BKN015
     FM191900 15003KT P6SM SCT025 BKN040
     FM200100 00000KT P6SM SCT250
     FM200600 00000KT 4SM BR SCT250
      TEMPO 2009/2013 2SM BR
     FM201500 19008KT P6SM BKN050=



000
FTUS44 KTSA 191700
TAFFYV
TAF
KFYV 191720Z 1918/2018 00000KT P6SM BKN015 BKN035
     FM191900 15003KT P6SM SCT025 BKN040
     FM200100 00000KT P6SM SCT250
     FM200600 00000KT 4SM BR SCT250
      TEMPO 2009/2013 2SM BR
     FM201500 20007KT P6SM BKN050=



000
FTUS44 KTSA 191700
TAFRVS
TAF
KRVS 191720Z 1918/2018 16010KT P6SM BKN015
     FM191900 16007KT P6SM BKN015
     FM192000 16007KT P6SM SCT025
     FM200100 15005KT P6SM FEW250
      TEMPO 2009/2013 4SM BR
     FM201500 19008KT P6SM BKN050=



000
FTUS44 KTSA 191600 AAA
TAFRVS
TAF AMD
KRVS 191604Z 1916/2012 15004KT 6SM BR OVC006
     FM191700 16010KT P6SM BKN015
     FM191900 16007KT P6SM SKC
     FM200100 15005KT P6SM SCT150=



000
FTUS44 KTSA 191600 AAA
TAFTUL
TAF AMD
KTUL 191603Z 1916/2012 16006KT 5SM BR OVC005
     FM191700 16010KT P6SM BKN015
     FM191900 16007KT P6SM SKC
     FM200100 15005KT P6SM SCT150=



000
FTUS44 KTSA 191400 AAB
TAFMLC
TAF AMD
KMLC 191431Z 1915/2012 VRB03KT 6SM BR BKN007 OVC015
      TEMPO 1915/1916 5SM BR SCT007
     FM191600 15005KT P6SM BKN025
     FM192000 14003KT P6SM SKC=



000
FTUS44 KTSA 191400 AAA
TAFXNA
TAF AMD
KXNA 191423Z 1914/2012 14007KT P6SM OVC008
     FM191600 13005KT P6SM BKN015
     FM191800 15007KT P6SM SCT040
      TEMPO 1919/1923 BKN040
     FM200100 16003KT P6SM SCT250
      TEMPO 2009/2012 3SM BR=



000
FTUS44 KTSA 191400 AAA
TAFMLC
TAF AMD
KMLC 191422Z 1914/2012 VRB03KT 5SM BR SCT004 BKN015
     FM191600 15005KT P6SM BKN025
     FM192000 14003KT P6SM SKC=



000
FTUS44 KTSA 191200 AAB
TAFFYV
TAF AMD
KFYV 191258Z 1913/2012 00000KT 3SM BR OVC010
     FM191500 15005KT P6SM SCT015 SCT250
     FM191800 17006KT P6SM SCT040
      TEMPO 1919/1923 BKN040
     FM200100 15002KT P6SM SCT250=



000
FTUS44 KTSA 191200 AAA
TAFFYV
TAF AMD
KFYV 191220Z 1912/2012 00000KT 1SM BR OVC010
      TEMPO 1912/1915 4SM BKN015
     FM191500 15005KT P6SM SCT015 SCT250
     FM191800 17006KT P6SM SCT040
      TEMPO 1919/1923 BKN040
     FM200100 15002KT P6SM SCT250=



000
FTUS44 KTSA 191100
TAFFSM
TAF
KFSM 191140Z 1912/2012 10006KT P6SM OVC014
     FM191600 08005KT P6SM SCT250
     FM191800 09006KT P6SM SCT045
      TEMPO 1919/1923 BKN045
     FM200100 10003KT P6SM SCT250=



000
FTUS44 KTSA 191100
TAFRVS
TAF
KRVS 191140Z 1912/2012 15004KT 6SM BR OVC005
     FM191600 16007KT P6SM SCT250
     FM200100 16003KT P6SM SCT150=



000
FTUS44 KTSA 191100
TAFTUL
TAF
KTUL 191140Z 1912/2012 13007KT 5SM BR OVC005
     FM191600 16010KT P6SM SCT250
     FM200100 15005KT P6SM SCT150=



000
FTUS44 KTSA 191100
TAFFYV
TAF
KFYV 191140Z 1912/2012 VRB03KT 5SM BR SCT010
      TEMPO 1912/1914 BKN010
     FM191600 15005KT P6SM SCT015 SCT250
     FM191800 17006KT P6SM SCT040
      TEMPO 1919/1923 BKN040
     FM200100 15002KT P6SM SCT250=



000
FTUS44 KTSA 191100
TAFMLC
TAF
KMLC 191140Z 1912/2012 14003KT P6SM BKN011
     FM191500 15005KT P6SM SCT250=



000
FTUS44 KTSA 191100
TAFXNA
TAF
KXNA 191140Z 1912/2012 10004KT P6SM SCT012
      TEMPO 1912/1915 BKN012
     FM191500 13005KT P6SM SCT015 SCT250
     FM191800 15007KT P6SM SCT040
      TEMPO 1919/1923 BKN040
     FM200100 16003KT P6SM SCT250
      TEMPO 2009/2012 3SM BR=



000
FTUS44 KTSA 191100 AAC
TAFFYV
TAF AMD
KFYV 191109Z 1911/2006 07003KT 5SM BR OVC010
     FM191600 16005KT P6SM SCT025
     FM200100 VRB03KT P6SM SCT250=



000
FTUS44 KTSA 191100 AAA
TAFRVS
TAF AMD
KRVS 191108Z 1911/2006 15004KT 6SM BR OVC005
     FM191500 17006KT P6SM SCT040
     FM200100 00000KT P6SM SCT250=



000
FTUS44 KTSA 191100 AAA
TAFTUL
TAF AMD
KTUL 191108Z 1911/2006 13007KT 5SM BR OVC005
     FM191500 16009KT P6SM SCT040
     FM200100 16005KT P6SM SCT250=



000
FTUS44 KTSA 191000 AAB
TAFFYV
TAF AMD
KFYV 191002Z 1910/2006 00000KT 1 1/2SM BR BKN015
      TEMPO 1910/1914 1SM BR BKN010
     FM191600 16005KT P6SM SCT025
     FM200100 VRB03KT P6SM SCT250=



000
FTUS44 KTSA 191000 AAB
TAFXNA
TAF AMD
KXNA 191001Z 1910/2006 09003KT P6SM SCT015
      TEMPO 1911/1913 2SM BR BKN015
     FM191600 16007KT P6SM SCT025
     FM200100 VRB03KT P6SM SCT250=



000
FTUS44 KTSA 190800 AAA
TAFFYV
TAF AMD
KFYV 190803Z 1908/2006 08004KT P6SM OVC015
     FM191600 16005KT P6SM SCT025
     FM200100 VRB03KT P6SM SCT250=



000
FTUS44 KTSA 190700 AAA
TAFMLC
TAF AMD
KMLC 190701Z 1907/2006 11004KT P6SM BKN025 BKN110
     FM191500 17008KT P6SM SCT040
     FM200100 VRB03KT P6SM SCT250=



000
FTUS44 KTSA 190700 AAA
TAFFSM
TAF AMD
KFSM 190701Z 1907/2006 07009KT P6SM BKN015
     FM191600 12007KT P6SM SCT025
     FM200100 08003KT P6SM SCT250=



000
FTUS44 KTSA 190600 AAA
TAFXNA
TAF AMD
KXNA 190611Z 1906/2006 09006KT P6SM OVC015
      TEMPO 1910/1913 2SM BR BKN009
     FM191600 16007KT P6SM SCT025
     FM200100 VRB03KT P6SM SCT250=



000
FTUS44 KTSA 190500
TAFTUL
TAF
KTUL 190520Z 1906/2006 09003KT P6SM SKC
     FM190900 16005KT 5SM BR SCT025
     FM191500 16009KT P6SM SCT040
     FM200100 16005KT P6SM SCT250=



000
FTUS44 KTSA 190500
TAFRVS
TAF
KRVS 190520Z 1906/2006 00000KT P6SM FEW040
     FM190800 00000KT 4SM BR SCT025
      TEMPO 1910/1914 1SM BR SCT005
     FM191500 17006KT P6SM SCT040
     FM200100 00000KT P6SM SCT250=



000
FTUS44 KTSA 190500
TAFXNA
TAF
KXNA 190520Z 1906/2006 08003KT P6SM BKN020
     FM190800 00000KT 3SM BR BKN015
      TEMPO 1910/1913 1SM BR BKN006
     FM191600 16007KT P6SM SCT025
     FM200100 VRB03KT P6SM SCT250=



000
FTUS44 KTSA 190500
TAFFSM
TAF
KFSM 190520Z 1906/2006 09004KT P6SM SCT050
     FM190800 08003KT 4SM BR BKN025
     FM191600 12007KT P6SM SCT025
     FM200100 08003KT P6SM SCT250=



000
FTUS44 KTSA 190500
TAFMLC
TAF
KMLC 190520Z 1906/2006 11004KT P6SM SKC
     FM190900 00000KT 5SM BR SCT025
     FM191500 17008KT P6SM SCT040
     FM200100 VRB03KT P6SM SCT250=



000
FTUS44 KTSA 190500
TAFFYV
TAF
KFYV 190520Z 1906/2006 00000KT P6SM BKN015
     FM190800 00000KT 3SM BR BKN012
      TEMPO 1910/1913 1SM BR BKN008
     FM191600 16005KT P6SM SCT025
     FM200100 VRB03KT P6SM SCT250=



000
FTUS44 KTSA 190300 AAA
TAFFYV
TAF AMD
KFYV 190353Z 1904/1924 00000KT P6SM BKN022
     FM190800 00000KT 3SM BR BKN015
      TEMPO 1910/1913 1SM BR BKN008
     FM191600 16005KT P6SM SCT040=



000
FTUS44 KTSA 182300
TAFXNA
TAF
KXNA 182320Z 1900/1924 07007KT P6SM SKC
     FM190200 11002KT P6SM SCT250
     FM190800 00000KT 3SM BR SCT010
      TEMPO 1910/1913 1SM BR BKN006
     FM191600 16007KT P6SM SCT040=



000
FTUS44 KTSA 182300
TAFMLC
TAF
KMLC 182320Z 1900/1924 09003KT P6SM SKC
     FM190900 00000KT 5SM BR SCT025
     FM191500 17008KT P6SM SCT040=



000
FTUS44 KTSA 182300
TAFFYV
TAF
KFYV 182320Z 1900/1924 07006KT P6SM BKN050
     FM190200 00000KT P6SM SCT250
     FM190800 00000KT 3SM BR SCT010
      TEMPO 1910/1913 1SM BR BKN008
     FM191600 16005KT P6SM SCT040=



000
FTUS44 KTSA 182300
TAFTUL
TAF
KTUL 182320Z 1900/1924 10007KT P6SM FEW040 SCT100
     FM190200 14005KT P6SM SCT250
     FM190900 16005KT 5SM BR SCT025
     FM191500 16009KT P6SM SCT040=



000
FTUS44 KTSA 182300
TAFFSM
TAF
KFSM 182320Z 1900/1924 07007KT P6SM SKC
     FM190200 10003KT P6SM SCT250
     FM190800 08003KT 4SM BR SCT015
     FM191600 12007KT P6SM SCT040=



000
FTUS44 KTSA 182300
TAFRVS
TAF
KRVS 182320Z 1900/1924 09006KT P6SM BKN045
     FM190200 00000KT P6SM SCT250
     FM190800 00000KT 4SM BR SCT025
     FM191500 17006KT P6SM SCT040=



000
FTUS44 KTSA 181700
TAFFSM
TAF
KFSM 181737Z 1818/1918 15006KT P6SM SCT040 BKN110
     FM190100 10003KT P6SM SCT250
     FM190800 08003KT 4SM BR SCT015
     FM191600 12005KT P6SM SCT040=



000
FTUS44 KTSA 181700
TAFXNA
TAF
KXNA 181737Z 1818/1918 08008KT P6SM SCT040 BKN100
     FM190100 11002KT P6SM SCT250
     FM190800 00000KT 3SM BR SCT010
      TEMPO 1910/1913 1SM BR BKN006
     FM191600 16007KT P6SM SCT040=



000
FTUS44 KTSA 181700
TAFFYV
TAF
KFYV 181737Z 1818/1918 09010KT P6SM SCT040 BKN100
     FM190100 00000KT P6SM SCT250
     FM190800 00000KT 3SM BR SCT010
      TEMPO 1910/1913 1SM BR BKN008
     FM191600 16005KT P6SM SCT040=



000
FTUS44 KTSA 181700
TAFRVS
TAF
KRVS 181737Z 1818/1918 18006KT P6SM BKN040 BKN100
     FM182000 13007KT P6SM SCT040 BKN120
     FM190100 00000KT P6SM SCT250
     FM190800 00000KT 4SM BR SCT025
     FM191500 17006KT P6SM SCT040=



000
FTUS44 KTSA 181700
TAFTUL
TAF
KTUL 181737Z 1818/1918 17008KT P6SM BKN040 BKN100
     FM182100 12007KT P6SM SCT040 BKN120
     FM190100 14006KT P6SM SCT250
     FM190900 16005KT 5SM BR SCT025
     FM191500 17007KT P6SM SCT040=



000
FTUS44 KTSA 181700
TAFMLC
TAF
KMLC 181737Z 1818/1918 08007KT P6SM SCT040 BKN100
     FM182100 12006KT P6SM BKN040 BKN100
     FM190200 12003KT P6SM SCT250
     FM190900 00000KT 5SM BR SCT025
     FM191500 16006KT P6SM SCT040=



000
FTUS44 KTSA 181100
TAFTUL
TAF
KTUL 181132Z 1812/1912 09009KT P6SM -SHRA OVC040
      TEMPO 1812/1815 4SM -TSRA OVC030CB
     FM181600 11007KT P6SM SCT040 BKN150
     FM181800 12007KT P6SM VCTS SCT040CB
     FM190000 15006KT P6SM SCT250
     FM190700 17005KT 5SM BR SKC=



000
FTUS44 KTSA 181100
TAFFSM
TAF
KFSM 181132Z 1812/1912 05006KT P6SM SCT040 OVC070
      TEMPO 1812/1816 5SM -TSRA BKN040CB
     FM181600 07006KT P6SM SCT040 BKN150
     FM181800 10006KT P6SM VCTS SCT040CB
     FM190000 08003KT P6SM SCT250
     FM190800 08003KT 4SM BR SKC=



000
FTUS44 KTSA 181100
TAFXNA
TAF
KXNA 181132Z 1812/1912 05008KT P6SM -SHRA SCT040 OVC070
      TEMPO 1812/1814 5SM -TSRA BKN040CB
     FM181600 10007KT P6SM SCT040 BKN150
     FM181800 12007KT P6SM VCTS SCT040CB
     FM190000 00000KT P6SM SCT250
     FM190700 00000KT 3SM BR SKC=



000
FTUS44 KTSA 181100
TAFFYV
TAF
KFYV 181132Z 1812/1912 06007KT P6SM -SHRA SCT040 OVC070
      TEMPO 1812/1814 5SM -TSRA BKN040CB
     FM181600 11006KT P6SM SCT040 BKN150
     FM181800 12006KT P6SM VCTS SCT040CB
     FM190000 00000KT P6SM SCT250
     FM190500 00000KT 2SM BR SKC=



000
FTUS44 KTSA 181100
TAFMLC
TAF
KMLC 181132Z 1812/1912 08007KT P6SM BKN040
      TEMPO 1813/1816 5SM -TSRA BKN030CB
     FM181600 15007KT P6SM SCT040 BKN150
     FM181800 16007KT P6SM VCTS SCT040CB
     FM190000 00000KT P6SM SCT250
     FM190800 00000KT 5SM BR SKC=



000
FTUS44 KTSA 181100
TAFRVS
TAF
KRVS 181132Z 1812/1912 09009KT P6SM -SHRA OVC040
      TEMPO 1812/1815 4SM -TSRA OVC030CB
     FM181600 11007KT P6SM SCT040 BKN150
     FM181800 12007KT P6SM VCTS SCT040CB
     FM190000 00000KT P6SM SCT250
     FM190700 00000KT 4SM BR SKC=



000
FTUS44 KTSA 180900 AAA
TAFFYV
TAF AMD
KFYV 180922Z 1809/1906 02008KT P6SM SCT040 BKN100
      TEMPO 1809/1813 4SM -TSRA BKN030CB
     FM181600 17004KT P6SM BKN040
     FM190000 VRB03KT P6SM BKN250=



000
FTUS44 KTSA 180900 AAA
TAFXNA
TAF AMD
KXNA 180921Z 1809/1906 02008KT P6SM SCT040 BKN100
      TEMPO 1809/1813 4SM -TSRA BKN030CB
     FM181600 VRB05KT P6SM BKN040
     FM190000 VRB03KT P6SM BKN250=



000
FTUS44 KTSA 180800 AAA
TAFFSM
TAF AMD
KFSM 180818Z 1808/1906 00000KT P6SM FEW045 BKN100
     FM181200 VRB03KT 5SM BR VCTS SCT025CB BKN040
     FM181700 12005KT P6SM BKN040
     FM190000 08004KT P6SM BKN250=



000
FTUS44 KTSA 180500
TAFFSM
TAF
KFSM 180520Z 1806/1906 18013G22KT P6SM FEW045 BKN100
     FM181200 VRB03KT 5SM BR VCTS SCT025CB BKN040
     FM181700 12005KT P6SM BKN040
     FM190000 08004KT P6SM BKN250=



000
FTUS44 KTSA 180500
TAFXNA
TAF
KXNA 180520Z 1806/1906 00000KT P6SM BKN250
     FM181000 00000KT 3SM BR VCTS SCT010CB BKN040
     FM181600 VRB05KT P6SM BKN040
     FM190000 VRB03KT P6SM BKN250=



000
FTUS44 KTSA 180500
TAFFYV
TAF
KFYV 180520Z 1806/1906 00000KT 3SM BR BKN250
      TEMPO 1806/1810 1/2SM FG VV002
     FM181000 00000KT 3SM BR VCTS SCT010CB BKN040
     FM181600 17004KT P6SM BKN040
     FM190000 VRB03KT P6SM BKN250=



000
FTUS44 KTSA 180500
TAFTUL
TAF
KTUL 180520Z 1806/1906 16010KT P6SM FEW070 OVC250
     FM181000 14005KT 5SM BR VCTS SCT025CB BKN150
     FM181600 16010KT P6SM SCT050 BKN100
     FM190000 16006KT P6SM BKN250=



000
FTUS44 KTSA 180500
TAFRVS
TAF
KRVS 180520Z 1806/1906 20004KT P6SM FEW070 OVC250
     FM181000 14003KT 5SM BR VCTS SCT025CB BKN150
     FM181600 16008KT P6SM SCT050 BKN100
     FM190000 16004KT P6SM BKN250=



000
FTUS44 KTSA 180500
TAFMLC
TAF
KMLC 180520Z 1806/1906 06011G18KT P6SM VCTS BKN025CB OVC060
     FM180700 06008KT P6SM BKN050
     FM180900 16004KT 5SM BR SCT015
     FM181500 18007KT P6SM SCT150
     FM181800 18007KT P6SM SCT050 BKN100
     FM190000 15004KT P6SM BKN250=



000
FTUS44 KTSA 180400 AAA
TAFMLC
TAF AMD
KMLC 180403Z 1804/1824 06011G18KT P6SM VCTS FEW019CB BKN024 OVC060
     FM180700 06008KT P6SM BKN050
     FM180900 00000KT 5SM BR SCT015
     FM181500 18007KT P6SM SCT150
     FM181800 18007KT P6SM SCT050 BKN100=



000
FTUS44 KTSA 180100 AAA
TAFXNA
TAF AMD
KXNA 180134Z 1802/1824 21007KT P6SM BKN100 OVC250
     FM181000 00000KT 3SM BR VCTS SCT010CB BKN040
     FM181500 VRB05KT P6SM BKN040=



000
FTUS44 KTSA 180100 AAA
TAFFYV
TAF AMD
KFYV 180134Z 1802/1824 00000KT P6SM BKN100 OVC250
     FM181000 00000KT 3SM BR VCTS SCT010CB BKN040
     FM181500 VRB05KT P6SM BKN040=



000
FTUS44 KTSA 180000 AAB
TAFFSM
TAF AMD
KFSM 180056Z 1801/1824 08003KT P6SM VCTS BKN040CB BKN250
      TEMPO 1801/1804 VRB30KT 3SM TSRA BR OVC025CB
     FM180400 08003KT P6SM BKN040
     FM181200 VRB03KT 5SM BR VCTS SCT020CB BKN040
     FM181700 12005KT P6SM BKN040=



000
FTUS44 KTSA 180000 AAA
TAFFSM
TAF AMD
KFSM 180031Z 1801/1824 08003KT P6SM VCTS BKN040CB BKN250
      TEMPO 1801/1804 3SM TSRA BR OVC025CB
     FM180400 08003KT P6SM BKN040
     FM181200 VRB03KT 5SM BR VCTS SCT020CB BKN040
     FM181700 12005KT P6SM BKN040=



000
FTUS44 KTSA 172300
TAFXNA
TAF
KXNA 172328Z 1800/1824 04007KT 3SM -TSRA BR SCT013CB OVC035
     FM180130 03010KT P6SM BKN030
     FM181000 00000KT 3SM BR VCTS SCT010CB BKN040
     FM181500 VRB05KT P6SM BKN040=



000
FTUS44 KTSA 172300
TAFMLC
TAF
KMLC 172328Z 1800/1824 17003KT P6SM BKN250
     FM180900 00000KT 5SM BR SCT015
     FM181500 18007KT P6SM SCT150
     FM181800 18007KT P6SM SCT050 BKN100=



000
FTUS44 KTSA 172300
TAFFYV
TAF
KFYV 172328Z 1800/1824 01014G24KT 1SM TSRA BR SCT015CB OVC025
      TEMPO 1800/1802 3SM -TSRA BR OVC015CB
     FM180200 VRB06KT P6SM BKN030
     FM181000 00000KT 3SM BR VCTS SCT010CB BKN040
     FM181500 VRB05KT P6SM BKN040=



000
FTUS44 KTSA 172300
TAFRVS
TAF
KRVS 172328Z 1800/1824 22006KT P6SM SCT060 BKN250
     FM180900 14004KT 5SM BR VCTS SCT020CB BKN150
     FM181400 14006KT P6SM BKN050
     FM181800 16007KT P6SM SCT050 BKN100=



000
FTUS44 KTSA 172300
TAFFSM
TAF
KFSM 172328Z 1800/1824 09007KT P6SM BKN250
     FM180100 08003KT P6SM VCTS BKN040CB BKN250
     FM180400 08003KT P6SM BKN040
     FM181200 VRB03KT 5SM BR VCTS SCT020CB BKN040
     FM181700 12005KT P6SM BKN040=



000
FTUS44 KTSA 172300
TAFTUL
TAF
KTUL 172328Z 1800/1824 20011KT P6SM SCT060 BKN250
     FM180900 14005KT 5SM BR VCTS SCT020CB BKN150
     FM181400 14006KT P6SM BKN050
     FM181800 16009KT P6SM SCT050 BKN100=



000
FTUS44 KTSA 172200 AAB
TAFFYV
TAF AMD
KFYV 172242Z 1723/1818 07003KT P6SM VCTS BKN025CB OVC035
      TEMPO 1723/1802 3SM TSRA BR OVC015CB
     FM180400 VRB06KT P6SM BKN030
     FM180800 00000KT 3SM BR VCTS SCT010CB BKN040
     FM181400 VRB05KT P6SM SCT035=



000
FTUS44 KTSA 172200 AAB
TAFXNA
TAF AMD
KXNA 172237Z 1723/1818 08019G26KT 3SM -TSRA BR SCT009CB BKN027
      OVC040
      TEMPO 1723/1802 1SM TSRA BR BKN009CB
     FM180400 08015KT P6SM BKN030
     FM180800 00000KT 3SM BR VCTS SCT010CB BKN040
     FM181500 VRB05KT P6SM SCT035=



000
FTUS44 KTSA 171800 AAA
TAFXNA
TAF AMD
KXNA 171858Z 1719/1818 24012KT P6SM SCT025 BKN035
     FM172100 24011KT P6SM VCTS BKN035CB
     FM172300 VRB06KT P6SM VCTS BKN040CB BKN250 PROB30 1804/1808 3SM
      TSRA BKN025CB
     FM180800 00000KT 3SM BR SCT010
     FM181500 VRB05KT P6SM SCT035=



000
FTUS44 KTSA 171800 AAA
TAFFYV
TAF AMD
KFYV 171857Z 1719/1818 23011KT P6SM SCT025 BKN035
     FM172100 24010KT P6SM VCTS BKN035CB
     FM180100 VRB06KT P6SM VCTS BKN040CB BKN250 PROB30 1804/1808 3SM
      TSRA BKN025CB
     FM180800 00000KT 3SM BR SCT010
     FM181400 VRB05KT P6SM SCT035=



000
FTUS44 KTSA 171700
TAFRVS
TAF
KRVS 171737Z 1718/1818 21008KT P6SM SCT050 SCT250
     FM180100 18003KT P6SM SCT050 BKN250
     FM180900 00000KT 3SM BR SCT020
     FM181400 15005KT P6SM SCT050=



000
FTUS44 KTSA 171700
TAFMLC
TAF
KMLC 171737Z 1718/1818 20009KT P6SM SCT050 BKN250
     FM180100 18004KT P6SM BKN250
     FM180900 00000KT 5SM BR SCT015
     FM181500 18007KT P6SM SCT150=



000
FTUS44 KTSA 171700
TAFFYV
TAF
KFYV 171737Z 1718/1818 23011KT P6SM SCT070
     FM172300 VRB06KT P6SM VCTS BKN040CB BKN250 PROB30 1803/1808 3SM
      TSRA BKN025CB
     FM180800 00000KT 3SM BR SCT010
     FM181400 VRB05KT P6SM SCT035=



000
FTUS44 KTSA 171700
TAFFSM
TAF
KFSM 171737Z 1718/1818 04006KT P6SM SCT015
     FM171900 VRB06KT P6SM SCT040 SCT250
     FM180200 08003KT P6SM VCTS BKN040CB BKN250 PROB30 1803/1809 5SM
      -TSRA BKN025CB
     FM181000 VRB03KT 5SM BR SCT020
     FM181600 12005KT P6SM SCT035=



000
FTUS44 KTSA 171700
TAFXNA
TAF
KXNA 171737Z 1718/1818 24012KT P6SM SCT070
     FM172300 VRB06KT P6SM VCTS BKN040CB BKN250 PROB30 1803/1808 3SM
      TSRA BKN025CB
     FM180800 00000KT 3SM BR SCT010
     FM181500 VRB05KT P6SM SCT035=



000
FTUS44 KTSA 171700
TAFTUL
TAF
KTUL 171737Z 1718/1818 21010KT P6SM SCT050 SCT250
     FM180100 19007KT P6SM SCT050 BKN250
     FM180900 16005KT 5SM BR SCT020
     FM181400 15006KT P6SM SCT050=



000
FTUS44 KTSA 171500 AAA
TAFXNA
TAF AMD
KXNA 171548Z 1716/1812 21011KT P6SM SCT010 SCT050
     FM171700 21011KT P6SM SCT050
     FM180000 VRB04KT P6SM VCTS SCT040CB BKN250 PROB30 1804/1808 3SM
      TSRA BKN025CB
     FM180800 00000KT 3SM BR SCT010=



000
FTUS44 KTSA 171500 AAA
TAFFYV
TAF AMD
KFYV 171548Z 1716/1812 21011KT P6SM SCT010 SCT050
     FM171700 21011KT P6SM SCT050
     FM180000 VRB04KT P6SM VCTS SCT040CB BKN250 PROB30 1804/1808 3SM
      TSRA BKN025CB
     FM180800 00000KT 3SM BR SCT010=



000
FTUS44 KTSA 171400 AAA
TAFFSM
TAF AMD
KFSM 171412Z 1714/1812 08006KT P6SM BKN006
      TEMPO 1714/1716 3SM BR BKN004
     FM171600 12006KT P6SM BKN015
     FM171800 22007KT P6SM SCT040
     FM180000 06003KT P6SM SCT040 BKN250 PROB30 1803/1809 5SM -TSRA
      BKN025CB
     FM181000 06003KT 5SM BR SCT020=



000
FTUS44 KTSA 171100
TAFXNA
TAF
KXNA 171135Z 1712/1812 19005KT P6SM BKN006
      TEMPO 1712/1714 3SM BR BKN002
     FM171400 21008KT P6SM BKN012
     FM171700 21009KT P6SM SCT035
     FM180000 00000KT P6SM SCT040 BKN250 PROB30 1800/1806 3SM TSRA
      BKN025CB
     FM180800 00000KT 3SM BR SCT010=



000
FTUS44 KTSA 171100
TAFMLC
TAF
KMLC 171135Z 1712/1812 18004KT P6SM SCT250
      TEMPO 1712/1714 4SM BR
     FM171400 21008KT P6SM SCT250
     FM171700 21008KT P6SM SCT040 BKN250
     FM180000 18004KT P6SM BKN250
     FM180900 00000KT 5SM BR SCT015=



000
FTUS44 KTSA 171100
TAFTUL
TAF
KTUL 171135Z 1712/1812 18008KT P6SM SCT003
      TEMPO 1712/1714 3SM BR BKN003
     FM171400 21010KT P6SM SCT250
     FM171700 21010KT P6SM SCT040
     FM180000 17007KT P6SM BKN250
     FM180900 16005KT 5SM BR SCT020=



000
FTUS44 KTSA 171100
TAFRVS
TAF
KRVS 171135Z 1712/1812 18004KT 4SM BR SCT003
      TEMPO 1712/1714 1SM BR BKN003
     FM171400 21008KT P6SM SCT250
     FM171700 21008KT P6SM SCT040
     FM180000 00000KT P6SM BKN250
     FM180900 00000KT 3SM BR SCT020=



000
FTUS44 KTSA 171100
TAFFSM
TAF
KFSM 171135Z 1712/1812 07006KT P6SM BKN006
      TEMPO 1712/1714 4SM BR BKN003
     FM171400 08006KT P6SM BKN015
     FM171700 22007KT P6SM SCT040
     FM180000 06003KT P6SM SCT040 BKN250 PROB30 1803/1809 5SM -TSRA
      BKN025CB
     FM181000 06003KT 5SM BR SCT020=



000
FTUS44 KTSA 171100
TAFFYV
TAF
KFYV 171135Z 1712/1812 20005KT P6SM BKN006
      TEMPO 1712/1714 3SM BR BKN003
     FM171400 21008KT P6SM BKN012
     FM171700 21009KT P6SM SCT035
     FM180000 00000KT P6SM SCT040 BKN250 PROB30 1800/1806 3SM TSRA
      BKN025CB
     FM180800 00000KT 3SM BR SCT010=



000
FTUS44 KTSA 170900 AAA
TAFMLC
TAF AMD
KMLC 170925Z 1709/1806 17003KT 5SM BR SCT250
     FM171400 17003KT P6SM FEW070 OVC250
     FM171800 20007KT P6SM BKN250
     FM180000 18003KT P6SM BKN250=



000
FTUS44 KTSA 170900 AAA
TAFTUL
TAF AMD
KTUL 170924Z 1709/1806 17007KT 4SM BR SKC
     FM171400 17007KT P6SM OVC025
     FM171800 18009KT P6SM BKN250 PROB30 1800/1806 3SM TSRA
      BKN050CB=



000
FTUS44 KTSA 170800 AAA
TAFRVS
TAF AMD
KRVS 170834Z 1709/1806 00000KT 5SM BR SKC
      TEMPO 1709/1713 2SM BR
     FM171400 17007KT P6SM OVC250
     FM171800 18009KT P6SM BKN250 PROB30 1800/1806 3SM TSRA
      BKN050CB=



000
FTUS44 KTSA 170800 AAB
TAFFYV
TAF AMD
KFYV 170822Z 1708/1806 00000KT P6SM SCT005
      TEMPO 1708/1711 2SM BR BKN003
     FM171200 21005KT 4SM BR OVC015
     FM171500 20007KT P6SM BKN250 PROB30 1800/1806 1SM TSRA
      BKN020CB=



000
FTUS44 KTSA 170800 AAB
TAFXNA
TAF AMD
KXNA 170821Z 1708/1806 00000KT 1/4SM FG VV002
     FM171400 21005KT 4SM BR OVC015
     FM171500 20007KT P6SM BKN250 PROB30 1800/1806 1SM TSRA
      BKN020CB=



000
FTUS44 KTSA 170700 AAA
TAFXNA
TAF AMD
KXNA 170700Z 1707/1806 00000KT P6SM BKN005
      TEMPO 1707/1711 2SM BR BKN003
     FM171100 00000KT 1SM BR BKN005
     FM171400 21005KT 4SM BR OVC015
     FM171500 20007KT P6SM BKN250 PROB30 1800/1806 1SM TSRA
      BKN020CB=



000
FTUS44 KTSA 170600 AAA
TAFFSM
TAF AMD
KFSM 170604Z 1706/1806 07006KT P6SM BKN005
      TEMPO 1707/1711 2SM BR BKN003
     FM171100 07002KT 1SM BR BKN005
     FM171500 08003KT P6SM OVC015
     FM171600 17005KT P6SM BKN250
     FM172100 18007KT P6SM BKN250 PROB30 1800/1806 3SM TSRA
      BKN050CB=



000
FTUS44 KTSA 170600 AAA
TAFFYV
TAF AMD
KFYV 170603Z 1706/1806 00000KT P6SM BKN008
      TEMPO 1707/1711 2SM BR BKN003
     FM171200 21005KT 4SM BR OVC015
     FM171500 20007KT P6SM BKN250 PROB30 1800/1806 1SM TSRA
      BKN020CB=



000
FTUS44 KTSA 170500
TAFFYV
TAF
KFYV 170520Z 1706/1806 00000KT 1/4SM FG VV004
     FM171200 21005KT 4SM BR OVC015
     FM171500 20007KT P6SM BKN250 PROB30 1800/1806 1SM TSRA
      BKN020CB=



000
FTUS44 KTSA 170500
TAFFSM
TAF
KFSM 170520Z 1706/1806 07006KT P6SM SKC
     FM170700 08002KT 2SM BR BKN007
      TEMPO 1707/1711 1/2SM FG BKN004
     FM171100 07002KT 1SM BR BKN007
     FM171500 08003KT P6SM OVC015
     FM171600 17005KT P6SM BKN250
     FM172100 18007KT P6SM BKN250 PROB30 1800/1806 3SM TSRA
      BKN050CB=



000
FTUS44 KTSA 170500
TAFMLC
TAF
KMLC 170520Z 1706/1806 17003KT P6SM FEW070 OVC250
     FM171800 20007KT P6SM BKN250
     FM180000 18003KT P6SM BKN250=



000
FTUS44 KTSA 170500
TAFRVS
TAF
KRVS 170520Z 1706/1806 17007KT P6SM OVC250
     FM171800 18009KT P6SM BKN250 PROB30 1800/1806 3SM TSRA
      BKN050CB=



000
FTUS44 KTSA 170500
TAFXNA
TAF
KXNA 170520Z 1706/1806 00000KT P6SM FEW010
     FM170800 00000KT 1SM BR BKN007
     FM171400 21005KT 4SM BR OVC015
     FM171500 20007KT P6SM BKN250 PROB30 1800/1806 1SM TSRA
      BKN020CB=



000
FTUS44 KTSA 170500
TAFTUL
TAF
KTUL 170520Z 1706/1806 17007KT P6SM OVC250
     FM171800 18009KT P6SM BKN250 PROB30 1800/1806 3SM TSRA
      BKN050CB=



000
FTUS44 KTSA 170300 AAC
TAFFYV
TAF AMD
KFYV 170339Z 1704/1724 00000KT 2SM BR SKC
      TEMPO 1704/1706 1/2SM FG OVC007
     FM170600 00000KT 1/2SM FG OVC007
      TEMPO 1708/1712 1/2SM FG BKN001
     FM171500 20005KT P6SM BKN015
     FM171800 21007KT P6SM BKN050=



000
FTUS44 KTSA 170200 AAB
TAFFYV
TAF AMD
KFYV 170257Z 1703/1724 00000KT 2SM BR SKC
     FM170600 00000KT 1/2SM FG OVC007
      TEMPO 1708/1712 1/2SM FG BKN001
     FM171500 20005KT P6SM BKN015
     FM171800 21007KT P6SM BKN050=



    US Dept of Commerce
    National Oceanic and Atmospheric Administration
    National Weather Service
    1325 East West Highway
    Silver Spring, MD 20910
    Page Author: NWS Internet Services Team
Disclaimer
Information Quality
Credits
Glossary
Privacy Policy
Freedom of Information Act (FOIA)
About Us
Career Opportunities